Time;durP1;ratioP1;P1;durP2;ratioP2;P2;SDS_P1;SDS_P2;PMS_P1;PMS_P2;Temp;Humidity;BMP_temperature;BMP_pressure;BME280_temperature;BME280_humidity;BME280_pressure;Samples;Min_cycle;Max_cycle;Signal;HPM_P1;HPM_P2
2022/04/24 00:01:24;;;;;;;36.40;26.48;;;23.20;43.70;;;;;;4983591;28;20030;-41
2022/04/24 00:03:50;;;;;;;36.60;26.52;;;23.20;43.70;;;;;;4996846;28;20735;-41
2022/04/24 00:06:16;;;;;;;33.08;24.50;;;23.20;43.70;;;;;;5002040;28;20041;-41
2022/04/24 00:08:42;;;;;;;32.67;25.17;;;23.20;43.60;;;;;;5001263;28;20557;-41
2022/04/24 00:11:07;;;;;;;36.22;26.60;;;23.20;43.60;;;;;;5001018;28;20112;-42
2022/04/24 00:13:41;;;;;;;33.15;24.65;;;23.20;43.60;;;;;;5001237;28;20121;-41
2022/04/24 00:16:08;;;;;;;31.30;23.38;;;23.20;43.60;;;;;;4984083;28;20026;-42
2022/04/24 00:18:35;;;;;;;31.70;23.13;;;23.20;43.60;;;;;;5001071;28;20026;-42
2022/04/24 00:21:01;;;;;;;33.88;24.13;;;23.20;43.70;;;;;;5001074;28;20562;-41
2022/04/24 00:23:28;;;;;;;27.45;21.15;;;23.20;43.50;;;;;;5001767;28;20029;-41
2022/04/24 00:25:53;;;;;;;30.58;23.25;;;23.20;43.50;;;;;;5000976;28;20084;-42
2022/04/24 00:28:19;;;;;;;28.88;21.58;;;23.20;43.50;;;;;;5000346;28;20297;-41
2022/04/24 00:30:45;;;;;;;30.58;22.38;;;23.10;43.50;;;;;;5000901;28;20462;-41
2022/04/24 00:33:11;;;;;;;29.70;21.90;;;23.10;43.60;;;;;;5000376;28;20029;-42
2022/04/24 00:35:37;;;;;;;29.25;20.77;;;23.10;43.70;;;;;;5000943;28;20508;-42
2022/04/24 00:38:02;;;;;;;29.13;20.25;;;23.10;43.70;;;;;;5001319;28;20274;-42
2022/04/24 00:40:28;;;;;;;26.17;19.65;;;23.10;43.60;;;;;;5000632;28;20290;-42
2022/04/24 00:42:54;;;;;;;26.27;20.27;;;23.10;43.60;;;;;;5000851;28;20026;-41
2022/04/24 00:45:20;;;;;;;28.80;19.77;;;23.10;43.50;;;;;;5001400;28;20441;-42
2022/04/24 00:47:46;;;;;;;23.58;18.10;;;23.10;43.60;;;;;;5000855;28;20394;-41
2022/04/24 00:50:12;;;;;;;25.52;19.10;;;23.10;43.60;;;;;;5000325;28;20032;-42
2022/04/24 00:52:38;;;;;;;27.08;19.70;;;23.10;43.60;;;;;;5000517;28;20109;-42
2022/04/24 00:55:07;;;;;;;23.30;17.60;;;23.10;43.50;;;;;;5000773;28;20037;-41
2022/04/24 00:57:33;;;;;;;26.40;18.85;;;23.10;43.50;;;;;;5000830;28;20052;-42
2022/04/24 00:59:59;;;;;;;25.50;17.95;;;23.00;43.40;;;;;;4999869;28;20030;-41
2022/04/24 01:02:24;;;;;;;24.38;18.10;;;23.10;43.50;;;;;;5000026;28;20113;-42
2022/04/24 01:04:50;;;;;;;24.05;17.02;;;23.00;43.40;;;;;;4996932;28;20053;-42
2022/04/24 01:07:16;;;;;;;23.88;17.40;;;23.00;43.40;;;;;;4980771;28;20411;-41
2022/04/24 01:09:42;;;;;;;22.33;17.13;;;23.00;43.40;;;;;;4981086;28;20022;-42
2022/04/24 01:12:08;;;;;;;21.38;16.05;;;23.00;43.30;;;;;;4985466;28;20044;-41
2022/04/24 01:14:34;;;;;;;20.23;15.20;;;23.00;43.30;;;;;;5000424;28;20045;-42
2022/04/24 01:17:02;;;;;;;21.80;16.20;;;23.00;43.40;;;;;;5000426;28;20103;-42
2022/04/24 01:19:28;;;;;;;21.40;15.95;;;23.00;43.40;;;;;;4999739;28;20026;-41
2022/04/24 01:21:55;;;;;;;21.75;15.48;;;23.00;43.40;;;;;;4999980;28;20416;-41
2022/04/24 01:24:23;;;;;;;20.02;14.40;;;23.00;43.40;;;;;;5000346;28;20121;-41
2022/04/24 01:26:49;;;;;;;22.20;15.48;;;23.00;43.30;;;;;;5000325;28;20097;-41
2022/04/24 01:29:16;;;;;;;20.88;15.68;;;23.00;43.30;;;;;;4999838;28;20033;-41
2022/04/24 01:31:47;;;;;;;18.77;13.45;;;23.00;43.30;;;;;;4999996;28;20030;-42
2022/04/24 01:34:13;;;;;;;19.75;14.68;;;23.00;43.40;;;;;;4965967;28;20030;-42
2022/04/24 01:36:39;;;;;;;19.77;14.65;;;23.00;43.30;;;;;;4999892;28;20497;-41
2022/04/24 01:39:04;;;;;;;20.33;14.93;;;23.00;43.30;;;;;;4999953;28;20080;-41
2022/04/24 01:41:31;;;;;;;18.30;14.30;;;23.00;43.30;;;;;;4999173;28;20026;-41
2022/04/24 01:43:58;;;;;;;18.15;13.80;;;23.00;43.30;;;;;;4999541;28;20026;-42
2022/04/24 01:46:24;;;;;;;17.42;13.15;;;23.00;43.30;;;;;;4981905;28;20030;-42
2022/04/24 01:48:49;;;;;;;17.60;13.00;;;23.00;43.40;;;;;;5000102;28;20026;-41
2022/04/24 01:51:16;;;;;;;19.38;14.40;;;22.90;43.30;;;;;;4999049;28;20037;-41
2022/04/24 01:53:43;;;;;;;17.17;13.25;;;23.00;43.20;;;;;;4999868;28;20751;-41
2022/04/24 01:56:09;;;;;;;17.52;12.65;;;22.90;43.20;;;;;;4999468;28;20793;-41
2022/04/24 01:58:36;;;;;;;17.25;13.18;;;23.00;43.30;;;;;;4999063;28;20068;-42
2022/04/24 02:01:03;;;;;;;16.90;12.30;;;22.90;43.30;;;;;;4999397;28;20034;-41
2022/04/24 02:03:30;;;;;;;16.48;12.40;;;22.90;43.30;;;;;;4999588;28;20026;-41
2022/04/24 02:05:56;;;;;;;15.18;11.35;;;22.90;43.30;;;;;;4992937;28;20034;-41
2022/04/24 02:08:22;;;;;;;17.25;12.48;;;22.90;43.30;;;;;;4979783;28;20018;-41
2022/04/24 02:10:48;;;;;;;15.45;11.02;;;22.90;43.20;;;;;;4979855;28;20034;-42
2022/04/24 02:13:14;;;;;;;14.63;10.98;;;22.90;43.30;;;;;;4991009;28;20044;-42
2022/04/24 02:15:40;;;;;;;15.73;11.57;;;22.90;43.30;;;;;;4999449;28;20072;-41
2022/04/24 02:18:06;;;;;;;13.98;10.52;;;22.90;43.20;;;;;;4998685;28;20065;-41
2022/04/24 02:20:31;;;;;;;14.68;11.15;;;22.90;43.20;;;;;;4998838;28;20048;-41
2022/04/24 02:22:58;;;;;;;14.65;10.82;;;22.90;43.20;;;;;;4999235;28;20244;-41
2022/04/24 02:25:28;;;;;;;14.73;11.20;;;22.90;43.20;;;;;;4999168;28;20701;-41
2022/04/24 02:27:55;;;;;;;14.35;10.75;;;22.90;43.10;;;;;;4999228;28;20456;-41
2022/04/24 02:30:22;;;;;;;14.60;10.70;;;22.90;43.10;;;;;;4998358;28;20041;-41
2022/04/24 02:32:48;;;;;;;15.02;10.75;;;22.90;43.10;;;;;;4999083;28;20026;-42
2022/04/24 02:35:14;;;;;;;13.98;10.25;;;22.90;43.20;;;;;;4998732;28;20423;-41
2022/04/24 02:37:40;;;;;;;13.48;9.80;;;22.90;43.10;;;;;;4999212;28;20251;-42
2022/04/24 02:40:10;;;;;;;13.05;9.65;;;22.90;43.10;;;;;;4998512;28;20128;-41
2022/04/24 02:42:37;;;;;;;13.93;9.80;;;22.90;43.00;;;;;;4998813;28;20054;-41
2022/04/24 02:45:07;;;;;;;13.15;9.27;;;22.90;43.10;;;;;;4998853;28;20080;-41
2022/04/24 02:47:33;;;;;;;12.65;9.35;;;22.90;43.10;;;;;;4998871;28;20113;-42
2022/04/24 02:49:59;;;;;;;12.32;9.40;;;22.90;43.10;;;;;;4998706;28;20026;-41
2022/04/24 02:52:25;;;;;;;11.32;8.80;;;22.80;42.90;;;;;;4998473;28;20060;-41
2022/04/24 02:54:50;;;;;;;11.40;8.13;;;22.80;42.90;;;;;;4997754;28;20084;-41
2022/04/24 02:57:16;;;;;;;12.25;8.77;;;22.80;42.80;;;;;;4998230;28;20026;-41
2022/04/24 02:59:42;;;;;;;11.45;7.80;;;22.90;42.90;;;;;;4998298;28;20367;-41
2022/04/24 03:02:09;;;;;;;11.48;8.35;;;22.80;42.90;;;;;;4998398;28;20077;-41
2022/04/24 03:04:36;;;;;;;10.88;7.93;;;22.90;42.90;;;;;;4998381;28;20022;-41
2022/04/24 03:07:01;;;;;;;10.48;8.07;;;22.90;42.80;;;;;;4972073;28;20019;-41
2022/04/24 03:09:27;;;;;;;10.90;7.55;;;22.80;42.80;;;;;;4978264;28;20041;-41
2022/04/24 03:11:53;;;;;;;10.52;7.82;;;22.80;42.70;;;;;;4979585;28;20044;-42
2022/04/24 03:14:18;;;;;;;11.45;8.27;;;22.80;42.80;;;;;;4998428;28;20037;-42
2022/04/24 03:16:44;;;;;;;10.63;7.70;;;22.80;42.70;;;;;;4998079;28;20030;-42
2022/04/24 03:19:10;;;;;;;10.48;7.60;;;22.80;42.80;;;;;;4998039;28;20545;-41
2022/04/24 03:21:35;;;;;;;9.68;7.30;;;22.80;42.70;;;;;;4997907;28;20030;-44
2022/04/24 03:24:01;;;;;;;10.65;7.65;;;22.80;42.70;;;;;;5001999;28;20097;-41
2022/04/24 03:26:27;;;;;;;9.40;6.95;;;22.80;42.70;;;;;;5004903;28;20112;-42
2022/04/24 03:28:52;;;;;;;8.85;6.38;;;22.80;42.70;;;;;;5003512;28;20243;-41
2022/04/24 03:31:18;;;;;;;10.57;7.53;;;22.80;42.80;;;;;;5003081;28;20113;-41
2022/04/24 03:33:44;;;;;;;9.60;6.53;;;22.80;42.70;;;;;;5004652;28;20022;-42
2022/04/24 03:36:09;;;;;;;9.88;7.45;;;22.80;42.70;;;;;;5004080;28;20036;-41
2022/04/24 03:38:35;;;;;;;9.57;6.68;;;22.80;42.60;;;;;;5003404;28;20694;-41
2022/04/24 03:41:01;;;;;;;8.75;6.43;;;22.80;42.60;;;;;;4985946;28;20484;-42
2022/04/24 03:43:27;;;;;;;9.38;6.47;;;22.80;42.60;;;;;;5004606;28;20707;-41
2022/04/24 03:45:53;;;;;;;9.00;6.70;;;22.80;42.50;;;;;;5004106;28;20506;-41
2022/04/24 03:48:18;;;;;;;8.57;6.43;;;22.80;42.50;;;;;;5003876;28;20033;-42
2022/04/24 03:50:44;;;;;;;9.30;6.47;;;22.80;42.40;;;;;;5003616;28;20029;-42
2022/04/24 03:53:10;;;;;;;7.97;5.80;;;22.80;42.40;;;;;;5004315;28;20026;-42
2022/04/24 03:55:36;;;;;;;9.32;6.40;;;22.80;42.40;;;;;;5003983;28;20044;-41
2022/04/24 03:58:02;;;;;;;7.93;5.93;;;22.80;42.40;;;;;;5003832;28;20037;-42
2022/04/24 04:00:27;;;;;;;7.72;5.78;;;22.80;42.40;;;;;;5003174;28;20034;-42
2022/04/24 04:02:53;;;;;;;7.95;6.05;;;22.80;42.40;;;;;;5003360;28;20026;-42
2022/04/24 04:05:20;;;;;;;7.63;5.63;;;22.80;42.40;;;;;;5003775;28;20334;-41
2022/04/24 04:07:46;;;;;;;7.97;6.03;;;22.80;42.30;;;;;;4998398;28;20033;-42
2022/04/24 04:10:12;;;;;;;7.65;5.05;;;22.80;42.30;;;;;;5002936;28;20076;-42
2022/04/24 04:12:38;;;;;;;8.65;5.60;;;22.80;42.30;;;;;;5003488;28;20033;-42
2022/04/24 04:15:07;;;;;;;8.60;5.28;;;22.70;42.30;;;;;;5003055;28;20681;-42
2022/04/24 04:17:33;;;;;;;8.25;5.57;;;22.80;42.30;;;;;;5004242;28;20046;-42
2022/04/24 04:19:59;;;;;;;8.38;5.88;;;22.70;42.30;;;;;;5003402;28;20030;-42
2022/04/24 04:22:25;;;;;;;6.75;5.10;;;22.80;42.30;;;;;;5004089;28;20026;-41
2022/04/24 04:24:52;;;;;;;7.85;5.65;;;22.70;42.30;;;;;;5003570;28;20200;-41
2022/04/24 04:27:19;;;;;;;7.80;5.40;;;22.70;42.30;;;;;;5003961;28;20224;-41
2022/04/24 04:29:45;;;;;;;7.03;4.65;;;22.70;42.40;;;;;;5003774;28;20036;-41
2022/04/24 04:32:11;;;;;;;6.70;5.10;;;22.70;42.40;;;;;;5003340;28;20650;-41
2022/04/24 04:34:37;;;;;;;7.65;4.72;;;22.70;42.40;;;;;;5003296;28;20034;-41
2022/04/24 04:37:03;;;;;;;6.55;4.70;;;22.70;42.40;;;;;;5000244;28;20469;-41
2022/04/24 04:39:29;;;;;;;6.60;4.85;;;22.70;42.40;;;;;;5000220;28;20046;-41
2022/04/24 04:41:54;;;;;;;5.72;4.22;;;22.70;43.00;;;;;;4999915;28;20065;-42
2022/04/24 04:44:20;;;;;;;6.13;4.47;;;22.70;42.40;;;;;;5000815;28;20038;-41
2022/04/24 04:46:46;;;;;;;6.72;4.47;;;22.70;42.30;;;;;;5000818;28;20309;-42
2022/04/24 04:49:11;;;;;;;6.47;4.70;;;22.70;42.30;;;;;;4999572;28;20640;-41
2022/04/24 04:51:37;;;;;;;7.00;4.13;;;22.70;42.30;;;;;;4999507;28;20041;-41
2022/04/24 04:54:03;;;;;;;6.90;4.55;;;22.70;42.30;;;;;;5000104;28;20026;-42
2022/04/24 04:56:28;;;;;;;7.20;4.63;;;22.70;42.20;;;;;;5000283;28;20022;-41
2022/04/24 04:58:54;;;;;;;7.40;4.70;;;22.70;42.20;;;;;;4998683;28;20557;-42
2022/04/24 05:01:20;;;;;;;6.75;4.47;;;22.70;42.20;;;;;;4999186;28;20030;-42
2022/04/24 05:03:46;;;;;;;6.70;4.03;;;22.70;42.40;;;;;;4999917;28;20552;-41
2022/04/24 05:06:11;;;;;;;7.55;4.60;;;22.70;42.30;;;;;;5000024;28;20026;-42
2022/04/24 05:08:37;;;;;;;6.30;4.15;;;22.70;42.40;;;;;;4998970;28;20136;-42
2022/04/24 05:11:03;;;;;;;5.63;3.90;;;22.70;42.40;;;;;;4998781;28;20038;-42
2022/04/24 05:13:28;;;;;;;5.75;3.83;;;22.70;42.40;;;;;;4996667;28;20040;-41
2022/04/24 05:15:54;;;;;;;5.65;4.05;;;22.70;42.40;;;;;;4998970;28;20109;-42
2022/04/24 05:18:20;;;;;;;5.88;3.80;;;22.70;42.40;;;;;;4998875;28;20078;-42
2022/04/24 05:20:46;;;;;;;5.60;4.05;;;22.70;42.40;;;;;;4998696;28;20026;-42
2022/04/24 05:23:11;;;;;;;5.63;3.40;;;22.70;42.40;;;;;;4997108;28;20228;-42
2022/04/24 05:25:38;;;;;;;5.78;3.67;;;22.70;42.30;;;;;;4981044;28;20026;-41
2022/04/24 05:28:05;;;;;;;6.03;3.67;;;22.70;42.30;;;;;;4998195;28;20057;-42
2022/04/24 05:30:31;;;;;;;6.05;3.63;;;22.80;42.30;;;;;;4998655;28;20064;-42
2022/04/24 05:32:57;;;;;;;5.80;3.70;;;22.80;42.30;;;;;;4998257;28;20028;-42
2022/04/24 05:35:23;;;;;;;5.15;3.30;;;22.90;42.30;;;;;;4997594;28;20046;-42
2022/04/24 05:37:50;;;;;;;4.80;3.15;;;22.90;42.20;;;;;;4998226;28;20109;-42
2022/04/24 05:40:16;;;;;;;5.43;3.58;;;23.00;42.20;;;;;;4995580;28;20158;-42
2022/04/24 05:42:55;;;;;;;5.13;3.38;;;23.00;42.20;;;;;;4998269;28;20050;-42
2022/04/24 05:45:27;;;;;;;4.40;2.80;;;23.00;42.10;;;;;;4992118;28;20508;-41
2022/04/24 05:47:54;;;;;;;4.68;2.85;;;23.10;42.20;;;;;;4997215;28;20036;-41
2022/04/24 05:50:23;;;;;;;5.30;3.22;;;23.10;42.10;;;;;;4996790;28;20052;-42
2022/04/24 05:52:48;;;;;;;5.35;2.95;;;23.10;42.10;;;;;;4996913;28;20053;-42
2022/04/24 05:55:14;;;;;;;5.03;3.13;;;23.20;42.30;;;;;;4997225;28;20053;-42
2022/04/24 05:57:40;;;;;;;5.03;2.95;;;23.20;42.50;;;;;;4997309;28;20030;-42
2022/04/24 06:00:08;;;;;;;4.43;3.00;;;23.20;42.60;;;;;;4997985;28;20292;-42
2022/04/24 06:02:34;;;;;;;5.68;3.03;;;23.30;43.30;;;;;;4998125;28;20025;-42
2022/04/24 06:05:00;;;;;;;8.20;3.35;;;23.30;43.40;;;;;;4992003;28;20441;-42
2022/04/24 06:07:26;;;;;;;4.07;2.60;;;23.40;44.40;;;;;;4997898;28;20021;-42
2022/04/24 06:09:51;;;;;;;5.05;2.97;;;23.50;43.50;;;;;;4998369;28;20025;-41
2022/04/24 06:12:17;;;;;;;5.53;2.90;;;23.50;43.20;;;;;;4997284;28;20052;-42
2022/04/24 06:14:43;;;;;;;4.97;2.72;;;23.50;43.10;;;;;;4997770;28;20045;-42
2022/04/24 06:17:09;;;;;;;5.50;2.92;;;23.60;42.90;;;;;;4997474;28;20053;-42
2022/04/24 06:19:35;;;;;;;6.05;3.13;;;23.60;42.80;;;;;;4997235;28;20482;-41
2022/04/24 06:22:00;;;;;;;5.03;2.92;;;23.70;42.70;;;;;;4997817;28;20128;-42
2022/04/24 06:24:26;;;;;;;5.50;2.30;;;23.70;42.60;;;;;;4997237;28;20025;-42
2022/04/24 06:26:52;;;;;;;4.85;2.55;;;23.70;42.50;;;;;;4997704;28;20021;-42
2022/04/24 06:29:18;;;;;;;4.18;2.60;;;23.70;42.40;;;;;;4995258;28;20331;-42
2022/04/24 06:31:44;;;;;;;4.60;2.60;;;23.70;42.40;;;;;;4998032;28;20022;-42
2022/04/24 06:34:10;;;;;;;5.95;2.92;;;23.70;42.40;;;;;;4997783;28;20070;-42
2022/04/24 06:36:36;;;;;;;5.47;2.72;;;23.70;42.30;;;;;;4998691;28;20346;-42
2022/04/24 06:39:02;;;;;;;3.70;2.17;;;23.70;42.20;;;;;;4998971;28;20026;-42
2022/04/24 06:41:29;;;;;;;4.40;2.00;;;23.70;42.20;;;;;;4998296;28;20033;-42
2022/04/24 06:43:55;;;;;;;3.95;2.20;;;23.70;42.20;;;;;;4998332;28;20026;-42
2022/04/24 06:46:21;;;;;;;3.58;2.08;;;23.70;42.20;;;;;;4998214;28;20028;-42
2022/04/24 06:48:47;;;;;;;4.68;2.58;;;23.70;42.20;;;;;;4998462;28;20026;-42
2022/04/24 06:51:13;;;;;;;4.15;2.35;;;23.70;42.10;;;;;;4997521;28;20056;-42
2022/04/24 06:53:39;;;;;;;4.15;2.53;;;23.70;42.10;;;;;;4995507;28;20034;-42
2022/04/24 06:56:05;;;;;;;4.13;2.25;;;23.70;42.10;;;;;;4998499;28;20030;-41
2022/04/24 06:58:31;;;;;;;4.07;2.10;;;23.70;42.10;;;;;;4995278;28;20032;-42
2022/04/24 07:00:57;;;;;;;3.95;2.33;;;23.70;42.10;;;;;;4997517;28;20498;-42
2022/04/24 07:03:24;;;;;;;4.43;2.00;;;23.70;42.00;;;;;;4997890;28;20106;-41
2022/04/24 07:06:00;;;;;;;3.70;2.08;;;23.70;42.00;;;;;;4998192;28;20089;-42
2022/04/24 07:08:27;;;;;;;3.78;2.20;;;23.70;42.10;;;;;;4997719;28;20033;-42
2022/04/24 07:10:53;;;;;;;3.28;1.95;;;23.70;42.00;;;;;;4997002;28;20239;-42
2022/04/24 07:13:19;;;;;;;3.40;2.10;;;23.70;42.00;;;;;;4996294;28;20036;-42
2022/04/24 07:15:45;;;;;;;3.65;2.03;;;23.70;42.00;;;;;;4997323;28;20041;-41
2022/04/24 07:18:11;;;;;;;3.20;1.70;;;23.70;42.70;;;;;;4995041;28;20725;-41
2022/04/24 07:20:37;;;;;;;4.18;2.08;;;23.60;41.90;;;;;;4997038;28;20552;-41
2022/04/24 07:23:05;;;;;;;3.78;1.92;;;23.60;42.00;;;;;;4997794;28;20018;-41
2022/04/24 07:25:40;;;;;;;3.30;2.10;;;23.70;42.10;;;;;;4997729;28;20531;-41
2022/04/24 07:28:10;;;;;;;3.67;1.90;;;23.60;42.00;;;;;;4995484;28;20677;-41
2022/04/24 07:30:36;;;;;;;3.40;1.92;;;23.60;42.10;;;;;;4996988;28;20260;-42
2022/04/24 07:33:02;;;;;;;3.42;1.80;;;23.60;42.00;;;;;;4997129;28;20022;-42
2022/04/24 07:35:35;;;;;;;3.10;1.83;;;23.60;42.10;;;;;;4997575;28;20613;-41
2022/04/24 07:38:02;;;;;;;3.88;2.00;;;23.60;42.10;;;;;;4974867;28;20022;-42
2022/04/24 07:40:30;;;;;;;5.00;2.17;;;23.60;42.80;;;;;;4982972;28;20041;-42
2022/04/24 07:43:01;;;;;;;4.20;2.20;;;23.60;42.90;;;;;;4982494;28;20029;-41
2022/04/24 07:45:39;;;;;;;3.08;1.92;;;23.60;43.10;;;;;;4979338;28;20179;-43
2022/04/24 07:48:07;;;;;;;3.97;1.80;;;23.60;43.40;;;;;;4997096;28;20260;-43
2022/04/24 07:50:50;;;;;;;3.50;1.85;;;23.60;43.60;;;;;;4996946;28;20034;-44
2022/04/24 07:53:17;;;;;;;4.18;1.70;;;23.60;43.80;;;;;;4996034;28;20075;-43
2022/04/24 07:55:45;;;;;;;3.97;1.70;;;23.60;43.90;;;;;;4990183;28;20038;-43
2022/04/24 07:58:11;;;;;;;4.13;1.65;;;23.60;43.80;;;;;;4992714;28;20026;-40
2022/04/24 08:00:38;;;;;;;4.53;1.65;;;23.60;43.80;;;;;;4978547;28;20026;-42
2022/04/24 08:03:06;;;;;;;3.55;1.63;;;23.60;43.80;;;;;;4996998;28;20113;-42
2022/04/24 08:05:33;;;;;;;3.17;1.60;;;23.60;43.80;;;;;;4997437;28;20112;-43
2022/04/24 08:08:01;;;;;;;2.70;1.50;;;23.60;43.80;;;;;;4996745;28;20044;-42
2022/04/24 08:10:29;;;;;;;4.22;1.73;;;23.70;43.80;;;;;;4998039;28;20105;-42
2022/04/24 08:12:55;;;;;;;3.03;1.77;;;23.60;43.80;;;;;;5000332;28;20107;-42
2022/04/24 08:15:23;;;;;;;2.83;1.65;;;23.60;43.80;;;;;;4982632;28;20049;-40
2022/04/24 08:17:49;;;;;;;2.75;1.67;;;23.60;43.30;;;;;;5000457;28;20034;-40
2022/04/24 08:20:16;;;;;;;3.42;1.60;;;23.60;43.00;;;;;;4988481;28;20052;-40
2022/04/24 08:22:43;;;;;;;2.92;1.73;;;23.60;42.80;;;;;;4980453;28;20440;-40
2022/04/24 08:25:22;;;;;;;2.55;1.42;;;23.60;42.80;;;;;;4980100;28;20703;-41
2022/04/24 08:27:50;;;;;;;3.08;1.58;;;23.60;42.70;;;;;;4983911;28;20552;-41
2022/04/24 08:30:18;;;;;;;2.92;1.63;;;23.60;42.60;;;;;;4998587;28;20110;-40
2022/04/24 08:32:44;;;;;;;2.47;1.45;;;23.60;42.50;;;;;;4999487;28;20044;-40
2022/04/24 08:35:12;;;;;;;2.97;1.45;;;23.60;42.50;;;;;;4996212;28;20026;-41
2022/04/24 08:37:38;;;;;;;2.97;1.67;;;23.60;42.50;;;;;;4996887;28;20026;-41
2022/04/24 08:40:06;;;;;;;3.00;1.70;;;23.60;42.50;;;;;;4994735;28;20052;-41
2022/04/24 08:42:32;;;;;;;3.13;1.52;;;23.60;42.50;;;;;;4998921;28;20022;-41
2022/04/24 08:44:58;;;;;;;2.38;1.40;;;23.60;42.50;;;;;;5000021;28;20014;-41
2022/04/24 08:47:25;;;;;;;3.10;1.50;;;23.60;42.50;;;;;;4997896;28;20010;-41
2022/04/24 08:49:56;;;;;;;2.40;1.40;;;23.60;42.50;;;;;;4999571;28;20080;-41
2022/04/24 08:52:22;;;;;;;3.55;1.33;;;23.60;42.70;;;;;;4999056;28;20390;-42
2022/04/24 08:54:50;;;;;;;3.00;1.35;;;23.60;43.00;;;;;;4999891;28;20097;-41
2022/04/24 08:57:16;;;;;;;2.78;1.25;;;23.60;43.20;;;;;;5000247;28;20052;-42
2022/04/24 08:59:42;;;;;;;2.95;1.50;;;23.60;43.40;;;;;;4999476;28;20489;-41
2022/04/24 09:02:10;;;;;;;3.25;1.50;;;23.60;43.40;;;;;;4999224;28;20010;-42
2022/04/24 09:04:38;;;;;;;2.72;1.40;;;23.60;43.70;;;;;;4982311;28;20026;-41
2022/04/24 09:07:08;;;;;;;4.32;1.48;;;23.60;43.80;;;;;;4998782;28;20030;-43
2022/04/24 09:09:43;;;;;;;3.42;1.80;;;23.60;44.10;;;;;;4981877;28;20022;-43
2022/04/24 09:12:15;;;;;;;2.53;1.38;;;23.60;44.70;;;;;;4997729;28;20050;-43
2022/04/24 09:14:46;;;;;;;3.00;1.50;;;23.60;44.70;;;;;;4999264;28;20038;-42
2022/04/24 09:17:19;;;;;;;3.80;1.83;;;23.60;44.90;;;;;;4999487;28;20117;-42
2022/04/24 09:19:45;;;;;;;3.92;1.75;;;23.60;44.10;;;;;;4999195;28;20648;-41
2022/04/24 09:22:11;;;;;;;4.25;1.48;;;23.60;43.80;;;;;;4999065;28;20119;-42
2022/04/24 09:25:02;;;;;;;3.90;1.73;;;23.70;43.50;;;;;;4981853;28;20022;-41
2022/04/24 09:27:30;;;;;;;2.80;1.40;;;23.70;43.20;;;;;;4999722;28;20030;-42
2022/04/24 09:30:02;;;;;;;2.83;1.30;;;23.70;42.90;;;;;;4999225;28;20038;-41
2022/04/24 09:32:29;;;;;;;;;;;23.70;42.80;;;;;;5000080;28;20472;-41
2022/04/24 09:34:55;;;;;;;4.78;1.80;;;23.70;42.70;;;;;;4999064;28;19912;-42
2022/04/24 09:37:22;;;;;;;3.20;1.42;;;23.70;42.20;;;;;;4998825;28;20030;-41
2022/04/24 09:39:49;;;;;;;3.35;1.73;;;23.70;42.60;;;;;;4989941;28;20034;-41
2022/04/24 09:42:17;;;;;;;3.03;1.20;;;23.70;43.30;;;;;;4995259;28;20030;-42
2022/04/24 09:44:48;;;;;;;2.65;1.30;;;23.70;43.80;;;;;;4994433;28;20038;-44
2022/04/24 09:47:17;;;;;;;3.28;1.50;;;23.70;43.90;;;;;;4996564;28;20084;-44
2022/04/24 09:49:49;;;;;;;3.10;1.42;;;23.70;44.10;;;;;;4989978;28;20084;-44
2022/04/24 09:52:22;;;;;;;3.08;1.48;;;23.70;44.00;;;;;;4992440;28;20034;-44
2022/04/24 09:54:50;;;;;;;2.88;1.45;;;23.70;44.20;;;;;;4986350;28;20030;-44
2022/04/24 09:57:16;;;;;;;3.25;1.83;;;23.70;44.30;;;;;;4998964;28;20042;-44
2022/04/24 09:59:45;;;;;;;3.20;1.60;;;23.80;44.40;;;;;;4998249;28;20021;-47
2022/04/24 10:02:14;;;;;;;4.45;1.75;;;23.80;44.30;;;;;;4998554;28;20257;-46
2022/04/24 10:04:40;;;;;;;2.88;1.52;;;23.80;44.40;;;;;;4976827;28;20104;-46
2022/04/24 10:07:10;;;;;;;3.33;1.77;;;23.80;44.30;;;;;;4996333;28;20103;-44
2022/04/24 10:09:38;;;;;;;3.78;1.60;;;23.80;44.30;;;;;;4989630;28;20037;-45
2022/04/24 10:12:18;;;;;;;3.58;1.85;;;23.90;44.40;;;;;;4998269;28;20441;-45
2022/04/24 10:15:12;;;;;;;4.47;2.05;;;23.90;44.40;;;;;;4998727;28;20442;-47
2022/04/24 10:18:01;;;;;;;7.35;1.98;;;23.90;44.70;;;;;;4999337;28;20022;-45
2022/04/24 10:20:35;;;;;;;4.47;1.73;;;23.90;45.00;;;;;;4997172;28;20180;-46
2022/04/24 10:23:01;;;;;;;3.35;1.67;;;24.00;44.90;;;;;;4987531;28;20725;-45
2022/04/24 10:25:38;;;;;;;3.40;1.50;;;23.90;44.90;;;;;;4991670;28;20034;-45
2022/04/24 10:28:15;;;;;;;3.58;1.60;;;23.90;44.90;;;;;;4992337;28;20057;-45
2022/04/24 10:30:44;;;;;;;2.92;1.50;;;24.00;44.70;;;;;;4996377;28;20029;-45
2022/04/24 10:33:26;;;;;;;3.45;1.70;;;24.00;45.00;;;;;;4989675;28;20061;-45
2022/04/24 10:36:02;;;;;;;3.05;1.52;;;23.90;44.80;;;;;;4991108;28;20076;-45
2022/04/24 10:38:29;;;;;;;4.35;1.50;;;24.00;44.90;;;;;;4996961;28;20104;-45
2022/04/24 10:40:59;;;;;;;3.05;1.58;;;24.00;45.10;;;;;;4992857;28;20034;-45
2022/04/24 10:43:26;;;;;;;3.15;1.60;;;24.00;45.50;;;;;;4998094;28;20022;-45
2022/04/24 10:45:52;;;;;;;4.43;1.50;;;24.00;45.20;;;;;;4998715;28;20114;-45
2022/04/24 10:48:19;;;;;;;2.88;1.35;;;24.00;45.20;;;;;;4994484;28;20533;-46
2022/04/24 10:50:55;;;;;;;3.65;1.60;;;24.00;45.10;;;;;;4995504;28;20326;-44
2022/04/24 10:53:21;;;;;;;3.05;1.50;;;24.00;45.10;;;;;;4980142;28;20029;-45
2022/04/24 10:55:46;;;;;;;3.28;1.35;;;24.00;44.90;;;;;;4998517;28;20026;-45
2022/04/24 10:58:13;;;;;;;3.65;1.60;;;24.00;45.30;;;;;;4997965;28;20562;-45
2022/04/24 11:00:40;;;;;;;3.15;1.63;;;24.00;45.20;;;;;;4997114;28;20105;-45
2022/04/24 11:03:11;;;;;;;2.53;1.20;;;24.00;44.90;;;;;;4995052;28;20021;-47
2022/04/24 11:05:40;;;;;;;4.72;1.55;;;24.00;45.30;;;;;;4997289;28;20030;-47
2022/04/24 11:08:07;;;;;;;3.65;1.58;;;24.00;45.20;;;;;;4998240;28;20033;-45
2022/04/24 11:10:41;;;;;;;2.70;1.33;;;24.00;45.00;;;;;;4994935;28;20553;-45
2022/04/24 11:13:20;;;;;;;2.53;1.15;;;24.10;44.90;;;;;;4988256;28;20037;-44
2022/04/24 11:15:49;;;;;;;2.85;1.20;;;24.10;44.90;;;;;;4992787;28;20034;-44
2022/04/24 11:18:23;;;;;;;3.35;1.20;;;24.10;45.00;;;;;;4995900;28;20030;-45
2022/04/24 11:21:07;;;;;;;2.58;1.10;;;24.10;44.90;;;;;;4994303;28;20055;-44
2022/04/24 11:23:35;;;;;;;3.35;1.30;;;24.10;44.90;;;;;;4993155;28;20026;-44
2022/04/24 11:26:05;;;;;;;3.20;1.25;;;24.10;45.00;;;;;;4990771;28;20022;-44
2022/04/24 11:28:49;;;;;;;3.30;1.20;;;24.10;44.90;;;;;;4978549;28;20030;-44
2022/04/24 11:31:22;;;;;;;2.97;1.20;;;24.10;44.90;;;;;;4994590;28;20042;-44
2022/04/24 11:33:59;;;;;;;2.38;1.15;;;24.10;44.80;;;;;;4996280;28;20037;-44
2022/04/24 11:36:31;;;;;;;2.10;1.10;;;24.10;44.90;;;;;;4996202;28;20030;-44
2022/04/24 11:38:59;;;;;;;2.78;1.27;;;24.10;45.00;;;;;;4996082;28;20096;-44
2022/04/24 11:41:29;;;;;;;2.60;1.17;;;24.10;45.10;;;;;;4996106;28;20030;-44
2022/04/24 11:44:03;;;;;;;2.95;1.33;;;24.10;45.20;;;;;;4996838;28;20030;-45
2022/04/24 11:52:08;;;;;;;2.75;1.13;;;24.10;45.00;;;;;;4995613;28;20112;-44
2022/04/24 11:54:34;;;;;;;10.25;2.95;;;24.10;45.00;;;;;;4997934;28;20246;-44
2022/04/24 11:57:00;;;;;;;14.32;4.60;;;24.10;44.90;;;;;;4999751;28;20709;-44
2022/04/24 11:59:26;;;;;;;18.75;5.38;;;24.10;44.90;;;;;;4998590;28;20057;-44
2022/04/24 12:01:56;;;;;;;16.58;5.47;;;24.10;44.80;;;;;;4997021;28;20757;-42
2022/04/24 12:04:25;;;;;;;16.95;5.78;;;24.10;45.00;;;;;;4998465;28;20030;-43
2022/04/24 12:07:08;;;;;;;16.23;5.18;;;24.10;44.70;;;;;;5000399;28;20037;-43
2022/04/24 12:09:36;;;;;;;10.75;4.47;;;24.10;44.60;;;;;;5000401;28;20621;-43
2022/04/24 12:12:22;;;;;;;10.20;4.72;;;24.10;44.50;;;;;;5000793;28;20034;-43
2022/04/24 12:14:49;;;;;;;14.40;4.93;;;24.00;44.30;;;;;;4999992;28;20073;-43
2022/04/24 12:17:15;;;;;;;11.98;4.45;;;24.00;44.10;;;;;;5000674;28;20014;-43
2022/04/24 12:19:58;;;;;;;10.20;4.47;;;24.00;44.10;;;;;;5001850;28;20060;-43
2022/04/24 12:22:29;;;;;;;;;;;24.00;44.10;;;;;;5002117;28;20088;-43
2022/04/24 12:25:09;;;;;;;8.32;3.58;;;24.00;44.10;;;;;;5001872;28;19921;-43
2022/04/24 12:27:36;;;;;;;14.60;4.65;;;24.00;44.10;;;;;;4984393;28;20018;-42
2022/04/24 12:30:06;;;;;;;10.38;3.88;;;24.00;44.10;;;;;;5001130;28;20037;-43
2022/04/24 12:32:34;;;;;;;10.60;3.88;;;24.00;44.20;;;;;;5001357;28;20022;-43
2022/04/24 12:35:00;;;;;;;10.88;4.22;;;24.00;44.20;;;;;;5001126;28;20678;-43
2022/04/24 12:37:30;;;;;;;8.80;4.07;;;24.00;44.20;;;;;;5001373;28;20034;-43
2022/04/24 12:39:57;;;;;;;7.07;3.53;;;24.00;44.30;;;;;;5000788;28;20037;-43
2022/04/24 12:42:23;;;;;;;10.75;3.30;;;24.00;44.90;;;;;;5000983;28;20029;-43
2022/04/24 12:44:50;;;;;;;9.35;3.20;;;24.00;44.30;;;;;;5001185;28;20038;-43
2022/04/24 12:47:16;;;;;;;8.90;3.67;;;24.00;44.40;;;;;;5000766;28;20033;-43
2022/04/24 12:49:44;;;;;;;7.65;3.17;;;24.00;44.40;;;;;;5000927;28;20026;-43
2022/04/24 12:52:11;;;;;;;8.38;3.35;;;24.00;44.30;;;;;;5000540;28;20018;-43